Time;durP1;ratioP1;P1;durP2;ratioP2;P2;SDS_P1;SDS_P2;PMS_P1;PMS_P2;Temp;Humidity;BMP_temperature;BMP_pressure;BME280_temperature;BME280_humidity;BME280_pressure;Samples;Min_cycle;Max_cycle;Signal;HPM_P1;HPM_P2
2022/07/21 00:02:05;;;;;;;3.45;2.15;;;;;;;;;;1708121;82;21064;-58
2022/07/21 00:04:33;;;;;;;2.75;2.15;;;;;;;;;;1731133;82;21080;-59
2022/07/21 00:06:59;;;;;;;4.37;2.05;;;;;;;;;;1707969;84;21057;-60
2022/07/21 00:09:26;;;;;;;4.75;2.45;;;;;;;;;;1711299;82;21100;-59
2022/07/21 00:11:53;;;;;;;3.98;2.20;;;;;;;;;;1708556;82;21049;-59
2022/07/21 00:14:19;;;;;;;2.77;2.12;;;;;;;;;;1710160;82;21058;-60
2022/07/21 00:16:45;;;;;;;4.05;1.90;;;;;;;;;;1708524;82;21123;-59
2022/07/21 00:19:12;;;;;;;4.55;2.45;;;;;;;;;;1703376;82;21041;-59
2022/07/21 00:21:38;;;;;;;3.80;2.10;;;;;;;;;;1709995;82;21057;-59
2022/07/21 00:24:05;;;;;;;3.33;2.22;;;;;;;;;;1709790;84;21080;-58
2022/07/21 00:26:32;;;;;;;4.87;2.20;;;;;;;;;;1710612;84;21076;-59
2022/07/21 00:28:58;;;;;;;3.15;2.08;;;;;;;;;;1713846;82;21083;-59
2022/07/21 00:31:24;;;;;;;6.40;2.33;;;;;;;;;;1707261;82;21064;-58
2022/07/21 00:33:51;;;;;;;5.58;2.20;;;;;;;;;;1717536;82;21060;-58
2022/07/21 00:36:18;;;;;;;3.87;2.20;;;;;;;;;;1743144;82;21001;-58
2022/07/21 00:38:44;;;;;;;4.70;2.15;;;;;;;;;;1707969;82;21046;-58
2022/07/21 00:41:10;;;;;;;4.30;2.12;;;;;;;;;;1706057;82;21588;-59
2022/07/21 00:43:36;;;;;;;5.67;2.05;;;;;;;;;;1710302;82;21119;-59
2022/07/21 00:46:03;;;;;;;3.22;2.10;;;;;;;;;;1730952;82;21072;-58
2022/07/21 00:48:30;;;;;;;4.00;2.33;;;;;;;;;;1736168;82;21080;-58
2022/07/21 00:50:58;;;;;;;2.90;2.02;;;;;;;;;;1716837;82;21387;-59
2022/07/21 00:53:24;;;;;;;5.00;2.20;;;;;;;;;;1710042;82;21064;-59
2022/07/21 00:57:05;;;;;;;2.83;2.15;;;;;;;;;;1795422;78;22361;-59
2022/07/21 00:59:31;;;;;;;3.02;2.45;;;;;;;;;;1762358;80;21013;-59
2022/07/21 01:04:47;;;;;;;4.15;2.22;;;;;;;;;;1736071;78;21055;-59
2022/07/21 01:07:15;;;;;;;6.35;2.45;;;;;;;;;;1709623;82;21580;-58
2022/07/21 01:09:42;;;;;;;3.00;2.20;;;;;;;;;;1733407;81;21004;-58
2022/07/21 01:12:08;;;;;;;3.80;2.15;;;;;;;;;;1734940;81;21085;-58
2022/07/21 01:14:35;;;;;;;5.62;2.05;;;;;;;;;;1728372;82;21567;-58
2022/07/21 01:17:02;;;;;;;2.85;1.95;;;;;;;;;;1725314;82;21092;-58
2022/07/21 01:19:29;;;;;;;3.15;1.95;;;;;;;;;;1733803;81;21102;-58
2022/07/21 01:21:56;;;;;;;4.05;2.00;;;;;;;;;;1744548;81;21534;-58
2022/07/21 01:24:22;;;;;;;3.90;2.00;;;;;;;;;;1727809;81;21039;-58
2022/07/21 01:26:49;;;;;;;4.50;1.98;;;;;;;;;;1729901;81;21012;-58
2022/07/21 01:29:15;;;;;;;3.42;1.95;;;;;;;;;;1754671;81;21738;-58
2022/07/21 01:31:42;;;;;;;3.75;2.12;;;;;;;;;;1707887;82;21075;-58
2022/07/21 01:34:09;;;;;;;3.22;1.90;;;;;;;;;;1728481;82;21043;-58
2022/07/21 01:36:37;;;;;;;3.83;2.10;;;;;;;;;;1728758;82;21008;-59
2022/07/21 01:41:48;;;;;;;4.20;2.00;;;;;;;;;;1747517;81;21067;-58
2022/07/21 01:44:14;;;;;;;2.58;1.80;;;;;;;;;;1739016;81;21581;-58
2022/07/21 01:46:42;;;;;;;3.20;2.20;;;;;;;;;;1729282;83;21110;-59
2022/07/21 01:49:08;;;;;;;4.00;2.20;;;;;;;;;;1727503;82;21043;-58
2022/07/21 01:51:34;;;;;;;3.20;2.27;;;;;;;;;;1724688;83;21670;-58
2022/07/21 01:54:01;;;;;;;4.05;2.45;;;;;;;;;;1748989;81;21102;-58
2022/07/21 01:56:27;;;;;;;3.90;2.50;;;;;;;;;;1735353;83;21076;-59
2022/07/21 01:58:54;;;;;;;3.27;2.40;;;;;;;;;;1749619;81;21068;-59
2022/07/21 02:01:21;;;;;;;4.12;2.83;;;;;;;;;;1726033;83;21047;-59
2022/07/21 02:03:47;;;;;;;3.12;2.37;;;;;;;;;;1737431;81;21107;-58
2022/07/21 02:06:13;;;;;;;2.90;2.08;;;;;;;;;;1766150;80;21023;-58
2022/07/21 02:08:42;;;;;;;4.47;2.33;;;;;;;;;;1765460;80;21111;-58
2022/07/21 02:11:08;;;;;;;3.40;2.10;;;;;;;;;;1779419;80;21057;-58
2022/07/21 02:13:35;;;;;;;3.62;2.30;;;;;;;;;;1775155;80;21526;-59
2022/07/21 02:16:02;;;;;;;5.22;1.92;;;;;;;;;;1765316;80;21040;-59
2022/07/21 02:18:28;;;;;;;3.62;1.87;;;;;;;;;;1767475;80;21079;-59
2022/07/21 02:20:55;;;;;;;3.55;2.20;;;;;;;;;;1759170;80;21092;-59
2022/07/21 02:23:22;;;;;;;3.42;2.25;;;;;;;;;;1748324;80;21064;-59
2022/07/21 02:25:48;;;;;;;3.83;2.08;;;;;;;;;;1734750;82;21036;-59
2022/07/21 02:28:14;;;;;;;3.77;2.10;;;;;;;;;;1762969;80;21067;-59
2022/07/21 02:30:41;;;;;;;6.65;2.35;;;;;;;;;;1766640;81;21036;-59
2022/07/21 02:33:07;;;;;;;3.35;2.02;;;;;;;;;;1723428;82;21095;-59
2022/07/21 02:35:35;;;;;;;4.03;2.17;;;;;;;;;;1702150;83;21065;-59
2022/07/21 02:38:01;;;;;;;4.90;1.92;;;;;;;;;;1722986;82;21031;-59
2022/07/21 02:40:27;;;;;;;3.85;2.10;;;;;;;;;;1767091;80;21009;-59
2022/07/21 02:42:53;;;;;;;2.60;1.80;;;;;;;;;;1764335;80;21077;-59
2022/07/21 02:45:19;;;;;;;4.05;2.27;;;;;;;;;;1729227;82;21131;-59
2022/07/21 02:47:50;;;;;;;5.92;2.05;;;;;;;;;;1728834;82;21551;-59
2022/07/21 02:50:16;;;;;;;3.58;2.30;;;;;;;;;;1773666;80;21021;-59
2022/07/21 02:52:42;;;;;;;3.42;1.85;;;;;;;;;;1763728;80;21055;-59
2022/07/21 02:55:09;;;;;;;3.60;2.22;;;;;;;;;;1768585;80;21091;-59
2022/07/21 02:57:35;;;;;;;4.47;2.30;;;;;;;;;;1729991;83;21107;-60
2022/07/21 03:00:03;;;;;;;5.03;2.15;;;;;;;;;;1729756;83;22152;-59
2022/07/21 03:02:29;;;;;;;5.28;2.55;;;;;;;;;;1701229;83;21077;-59
2022/07/21 03:04:55;;;;;;;5.20;2.15;;;;;;;;;;1765035;80;21581;-59
2022/07/21 03:07:21;;;;;;;4.30;2.70;;;;;;;;;;1776296;80;21044;-59
2022/07/21 03:09:48;;;;;;;3.77;2.05;;;;;;;;;;1728932;82;21031;-59
2022/07/21 03:12:15;;;;;;;4.17;2.37;;;;;;;;;;1729146;82;21070;-59
2022/07/21 03:14:43;;;;;;;3.47;2.47;;;;;;;;;;1695512;83;21096;-59
2022/07/21 03:17:09;;;;;;;5.03;2.47;;;;;;;;;;1724494;81;22202;-59
2022/07/21 03:19:36;;;;;;;7.05;2.67;;;;;;;;;;1698052;83;21084;-59
2022/07/21 03:22:02;;;;;;;5.62;2.50;;;;;;;;;;1766986;81;21621;-59
2022/07/21 03:24:29;;;;;;;6.55;2.58;;;;;;;;;;1766794;81;21530;-58
2022/07/21 03:26:56;;;;;;;8.28;2.47;;;;;;;;;;1788090;80;21083;-58
2022/07/21 03:29:22;;;;;;;3.45;2.35;;;;;;;;;;1777588;80;21072;-58
2022/07/21 03:31:48;;;;;;;4.95;2.65;;;;;;;;;;1728743;82;21072;-58
2022/07/21 03:34:15;;;;;;;3.35;2.40;;;;;;;;;;1703326;83;21071;-58
2022/07/21 03:36:41;;;;;;;4.60;2.27;;;;;;;;;;1767374;80;21070;-58
2022/07/21 03:39:08;;;;;;;3.02;2.10;;;;;;;;;;1796152;80;21052;-58
2022/07/21 03:41:34;;;;;;;2.87;2.10;;;;;;;;;;1776511;80;21103;-58
2022/07/21 03:44:00;;;;;;;3.00;2.10;;;;;;;;;;1788338;80;21561;-58
2022/07/21 03:46:27;;;;;;;4.35;2.22;;;;;;;;;;1770656;80;22173;-58
2022/07/21 03:48:54;;;;;;;4.08;2.40;;;;;;;;;;1767777;80;21102;-58
2022/07/21 03:51:20;;;;;;;3.80;2.12;;;;;;;;;;1765435;80;21088;-58
2022/07/21 03:53:46;;;;;;;3.87;2.10;;;;;;;;;;1727990;82;21060;-58
2022/07/21 03:56:12;;;;;;;3.30;2.08;;;;;;;;;;1729497;83;21075;-58
2022/07/21 03:58:39;;;;;;;2.60;1.92;;;;;;;;;;1735738;81;21512;-58
2022/07/21 04:01:05;;;;;;;3.47;2.20;;;;;;;;;;1698678;83;21039;-59
2022/07/21 04:03:33;;;;;;;3.62;2.20;;;;;;;;;;1765861;80;21084;-58
2022/07/21 04:05:59;;;;;;;2.35;1.90;;;;;;;;;;1763103;80;21250;-58
2022/07/21 04:08:25;;;;;;;2.92;2.15;;;;;;;;;;1792583;80;21047;-59
2022/07/21 04:10:51;;;;;;;3.40;2.02;;;;;;;;;;1766444;80;21016;-59
2022/07/21 04:13:18;;;;;;;3.42;2.20;;;;;;;;;;1768463;80;21074;-59
2022/07/21 04:15:44;;;;;;;3.22;2.00;;;;;;;;;;1776689;80;21524;-59
2022/07/21 04:18:10;;;;;;;4.12;2.20;;;;;;;;;;1766981;80;21083;-59
2022/07/21 04:20:36;;;;;;;3.52;2.40;;;;;;;;;;1724257;82;21040;-59
2022/07/21 04:23:03;;;;;;;3.75;2.12;;;;;;;;;;1726387;82;21056;-60
2022/07/21 04:25:29;;;;;;;6.12;2.27;;;;;;;;;;1766514;81;21051;-58
2022/07/21 04:27:56;;;;;;;9.28;2.35;;;;;;;;;;1729341;83;21552;-59
2022/07/21 04:30:23;;;;;;;6.55;2.60;;;;;;;;;;1781953;80;21103;-59
2022/07/21 04:32:49;;;;;;;4.12;2.15;;;;;;;;;;1771100;80;21012;-59
2022/07/21 04:35:17;;;;;;;3.33;2.20;;;;;;;;;;1714193;82;21048;-59
2022/07/21 04:37:44;;;;;;;3.87;2.17;;;;;;;;;;1698246;83;21020;-59
2022/07/21 04:40:11;;;;;;;4.55;2.10;;;;;;;;;;1726818;82;21519;-59
2022/07/21 04:42:37;;;;;;;4.33;2.40;;;;;;;;;;1764333;80;21500;-60
2022/07/21 04:45:04;;;;;;;3.40;2.15;;;;;;;;;;1770856;80;21558;-59
2022/07/21 04:47:30;;;;;;;4.37;2.10;;;;;;;;;;1767402;80;21443;-59
2022/07/21 04:49:56;;;;;;;4.72;2.22;;;;;;;;;;1770469;80;21336;-59
2022/07/21 04:52:22;;;;;;;3.02;1.90;;;;;;;;;;1772827;80;21067;-60
2022/07/21 04:54:48;;;;;;;2.90;1.90;;;;;;;;;;1728298;82;21052;-59
2022/07/21 04:57:14;;;;;;;3.37;1.80;;;;;;;;;;1780043;80;21060;-60
2022/07/21 04:59:41;;;;;;;4.10;2.10;;;;;;;;;;1729736;83;21584;-60
2022/07/21 05:02:07;;;;;;;3.72;1.90;;;;;;;;;;1765462;81;21071;-58
2022/07/21 05:04:34;;;;;;;3.95;2.00;;;;;;;;;;1763171;80;21071;-60
2022/07/21 05:07:00;;;;;;;4.10;2.20;;;;;;;;;;1744730;81;21073;-60
2022/07/21 05:09:27;;;;;;;4.87;2.12;;;;;;;;;;1718096;83;21029;-60
2022/07/21 05:11:54;;;;;;;4.45;2.05;;;;;;;;;;1698196;82;21028;-60
2022/07/21 05:14:22;;;;;;;2.83;2.00;;;;;;;;;;1720389;82;21539;-60
2022/07/21 05:16:48;;;;;;;5.12;1.95;;;;;;;;;;1730976;82;21541;-60
2022/07/21 05:19:16;;;;;;;5.28;1.92;;;;;;;;;;1714362;82;21041;-60
2022/07/21 05:21:43;;;;;;;2.42;1.80;;;;;;;;;;1720369;82;21033;-59
2022/07/21 05:24:10;;;;;;;4.42;2.10;;;;;;;;;;1701214;83;21072;-60
2022/07/21 05:26:36;;;;;;;4.12;2.08;;;;;;;;;;1707026;83;21045;-60
2022/07/21 05:29:02;;;;;;;3.65;2.00;;;;;;;;;;1702451;83;21556;-60
2022/07/21 05:31:28;;;;;;;3.50;2.10;;;;;;;;;;1702367;83;21071;-58
2022/07/21 05:33:55;;;;;;;3.08;1.90;;;;;;;;;;1710315;83;22219;-59
2022/07/21 05:36:21;;;;;;;3.70;1.90;;;;;;;;;;1702104;84;21090;-58
2022/07/21 05:38:47;;;;;;;3.90;1.90;;;;;;;;;;1668375;85;21045;-59
2022/07/21 05:41:15;;;;;;;2.98;2.35;;;;;;;;;;1646588;87;21099;-59
2022/07/21 05:43:41;;;;;;;3.15;2.00;;;;;;;;;;1706661;83;21117;-59
2022/07/21 05:46:07;;;;;;;3.62;2.00;;;;;;;;;;1668239;86;21076;-59
2022/07/21 05:48:35;;;;;;;4.58;3.00;;;;;;;;;;1708493;83;21189;-59
2022/07/21 05:51:01;;;;;;;3.72;1.90;;;;;;;;;;1674058;85;21052;-59
2022/07/21 05:53:28;;;;;;;6.00;1.95;;;;;;;;;;1701328;83;21087;-59
2022/07/21 05:55:55;;;;;;;5.22;1.77;;;;;;;;;;1688941;83;21021;-66
2022/07/21 05:58:23;;;;;;;4.97;1.80;;;;;;;;;;1673938;84;21052;-64
2022/07/21 06:01:08;;;;;;;6.17;1.87;;;;;;;;;;1701654;84;21184;-63
2022/07/21 06:03:36;;;;;;;3.42;1.90;;;;;;;;;;1702690;83;21154;-64
2022/07/21 06:06:02;;;;;;;2.58;2.05;;;;;;;;;;1702261;83;21616;-63
2022/07/21 06:08:30;;;;;;;3.67;2.00;;;;;;;;;;1722313;83;21050;-63
2022/07/21 06:10:56;;;;;;;2.47;1.80;;;;;;;;;;1721836;82;20977;-64
2022/07/21 06:13:24;;;;;;;2.00;1.67;;;;;;;;;;1691783;83;21591;-63
2022/07/21 06:15:50;;;;;;;3.12;1.70;;;;;;;;;;1715968;83;21108;-64
2022/07/21 06:18:18;;;;;;;2.60;1.65;;;;;;;;;;1718755;83;21224;-64
2022/07/21 06:20:46;;;;;;;4.75;1.80;;;;;;;;;;1720170;82;21084;-63
2022/07/21 06:23:12;;;;;;;3.30;1.70;;;;;;;;;;1718086;82;21201;-63
2022/07/21 06:25:39;;;;;;;3.02;1.70;;;;;;;;;;1721672;82;21124;-63
2022/07/21 06:28:05;;;;;;;3.10;1.77;;;;;;;;;;1695424;84;21092;-63
2022/07/21 06:30:32;;;;;;;2.67;1.52;;;;;;;;;;1721980;82;21084;-63
2022/07/21 06:32:58;;;;;;;4.20;1.60;;;;;;;;;;1722467;83;22347;-63
2022/07/21 06:48:35;;;;;;;6.80;1.60;;;;;;;;;;1723318;83;23117;-66
2022/07/21 06:51:02;;;;;;;3.30;1.77;;;;;;;;;;1756213;80;21046;-66
2022/07/21 06:53:28;;;;;;;4.40;1.80;;;;;;;;;;1739419;81;21047;-66
2022/07/21 06:55:55;;;;;;;2.95;1.35;;;;;;;;;;1750933;81;21598;-66
2022/07/21 06:58:22;;;;;;;2.35;1.50;;;;;;;;;;1759644;80;21060;-66
2022/07/21 07:00:48;;;;;;;4.83;1.55;;;;;;;;;;1763459;80;20967;-65
2022/07/21 07:03:14;;;;;;;2.02;1.50;;;;;;;;;;1742733;80;20991;-66
2022/07/21 07:05:41;;;;;;;3.62;1.50;;;;;;;;;;1757649;81;21532;-66
2022/07/21 07:08:08;;;;;;;4.47;1.60;;;;;;;;;;1759808;80;21010;-66
2022/07/21 07:10:35;;;;;;;4.55;1.60;;;;;;;;;;1763194;81;21030;-66
2022/07/21 07:13:02;;;;;;;1.90;1.40;;;;;;;;;;1755143;81;21052;-66
2022/07/21 07:15:29;;;;;;;3.25;1.37;;;;;;;;;;1763719;81;21050;-67
2022/07/21 07:17:57;;;;;;;2.17;1.42;;;;;;;;;;1765881;81;21050;-65
2022/07/21 07:20:23;;;;;;;3.17;1.52;;;;;;;;;;1765598;81;21082;-66
2022/07/21 07:35:02;;;;;;;4.12;1.80;;;;;;;;;;1864772;77;22763;-69
2022/07/21 07:37:28;;;;;;;7.58;2.42;;;;;;;;;;1778669;80;21451;-69
2022/07/21 07:39:54;;;;;;;3.47;1.70;;;;;;;;;;1834023;78;21059;-68
2022/07/21 07:42:20;;;;;;;6.85;1.85;;;;;;;;;;1833868;78;21068;-67
2022/07/21 07:44:47;;;;;;;7.05;1.92;;;;;;;;;;1797100;80;21017;-67
2022/07/21 07:47:14;;;;;;;7.42;2.35;;;;;;;;;;1808710;79;21080;-68
2022/07/21 07:49:40;;;;;;;4.05;1.72;;;;;;;;;;1805232;77;21043;-69
2022/07/21 07:52:06;;;;;;;7.28;1.87;;;;;;;;;;1799740;80;21044;-67
2022/07/21 07:54:32;;;;;;;7.75;1.90;;;;;;;;;;1819870;78;21100;-68
2022/07/21 07:56:59;;;;;;;4.40;1.90;;;;;;;;;;1771200;80;21047;-69
2022/07/21 07:59:25;;;;;;;2.58;1.40;;;;;;;;;;1834014;78;21047;-70
2022/07/21 08:01:51;;;;;;;3.30;1.57;;;;;;;;;;1804739;78;21049;-70
2022/07/21 08:04:17;;;;;;;4.12;1.45;;;;;;;;;;1769035;80;21029;-69
2022/07/21 08:06:43;;;;;;;5.00;1.60;;;;;;;;;;1816782;79;21009;-68
2022/07/21 08:09:09;;;;;;;3.70;1.50;;;;;;;;;;1823322;79;21479;-68
2022/07/21 08:11:35;;;;;;;3.80;1.47;;;;;;;;;;1823177;77;21012;-69
2022/07/21 08:14:01;;;;;;;3.47;1.30;;;;;;;;;;1823188;79;21542;-69
2022/07/21 08:16:28;;;;;;;5.00;1.50;;;;;;;;;;1820303;77;21044;-69
2022/07/21 08:18:55;;;;;;;3.80;1.60;;;;;;;;;;1821584;79;21036;-68
2022/07/21 08:21:21;;;;;;;5.22;1.92;;;;;;;;;;1821039;79;21059;-67
2022/07/21 08:23:47;;;;;;;10.35;2.60;;;;;;;;;;1822783;77;21007;-69
2022/07/21 08:26:14;;;;;;;2.83;1.47;;;;;;;;;;1818818;77;21697;-70
2022/07/21 08:28:40;;;;;;;4.85;1.50;;;;;;;;;;1821380;79;21059;-70
2022/07/21 08:31:06;;;;;;;3.00;1.45;;;;;;;;;;1821639;79;20953;-69
2022/07/21 08:33:32;;;;;;;4.00;1.62;;;;;;;;;;1807690;77;21062;-69
2022/07/21 08:35:59;;;;;;;4.65;1.90;;;;;;;;;;1791731;79;21060;-69
2022/07/21 08:38:25;;;;;;;2.42;1.25;;;;;;;;;;1784103;80;21515;-69
2022/07/21 08:40:52;;;;;;;2.52;1.60;;;;;;;;;;1781974;80;21048;-71
2022/07/21 08:43:18;;;;;;;2.62;1.60;;;;;;;;;;1781977;80;21025;-67
2022/07/21 08:45:44;;;;;;;3.52;1.40;;;;;;;;;;1786329;79;22040;-67
2022/07/21 08:48:13;;;;;;;3.35;1.40;;;;;;;;;;1785350;79;21076;-68
2022/07/21 08:50:40;;;;;;;4.95;1.98;;;;;;;;;;1786806;80;21041;-68
2022/07/21 08:53:06;;;;;;;3.77;1.77;;;;;;;;;;1789027;80;21023;-69
2022/07/21 08:55:34;;;;;;;7.12;1.70;;;;;;;;;;1777797;80;21506;-69
2022/07/21 08:58:00;;;;;;;2.80;1.40;;;;;;;;;;1765334;81;21072;-68
2022/07/21 09:00:26;;;;;;;2.20;1.50;;;;;;;;;;1763152;80;21063;-69
2022/07/21 09:03:13;;;;;;;5.60;1.98;;;;;;;;;;1771579;80;21087;-69
2022/07/21 09:05:39;;;;;;;2.10;1.40;;;;;;;;;;1767510;81;21076;-69
2022/07/21 09:08:06;;;;;;;5.12;1.67;;;;;;;;;;1766846;81;21098;-70
2022/07/21 09:10:35;;;;;;;4.40;1.60;;;;;;;;;;1771299;81;21542;-70
2022/07/21 09:13:04;;;;;;;2.08;1.70;;;;;;;;;;1773793;80;21059;-70
2022/07/21 09:15:31;;;;;;;3.12;1.60;;;;;;;;;;1776659;80;21500;-70
2022/07/21 09:18:13;;;;;;;3.55;1.40;;;;;;;;;;1772890;80;21151;-69
2022/07/21 09:20:47;;;;;;;2.80;1.50;;;;;;;;;;1770473;80;21004;-68
2022/07/21 09:23:13;;;;;;;3.02;1.60;;;;;;;;;;1770286;81;21047;-67
2022/07/21 09:25:44;;;;;;;3.80;1.60;;;;;;;;;;1770222;81;21063;-69
2022/07/21 09:28:11;;;;;;;5.65;1.60;;;;;;;;;;1771259;80;21005;-69
2022/07/21 09:30:48;;;;;;;5.75;1.80;;;;;;;;;;1771738;80;21144;-68
2022/07/21 09:33:23;;;;;;;2.52;1.42;;;;;;;;;;1761494;80;21215;-69
2022/07/21 09:35:54;;;;;;;3.05;1.60;;;;;;;;;;1724172;83;21518;-69
2022/07/21 09:38:21;;;;;;;2.45;1.70;;;;;;;;;;1760235;81;21001;-68
2022/07/21 09:40:48;;;;;;;3.87;1.70;;;;;;;;;;1751521;80;21110;-68
2022/07/21 09:43:32;;;;;;;4.90;2.00;;;;;;;;;;1757197;81;21028;-70
2022/07/21 09:46:00;;;;;;;2.85;1.80;;;;;;;;;;1758755;81;21269;-70
2022/07/21 09:48:34;;;;;;;5.45;1.60;;;;;;;;;;1754784;80;20996;-70
2022/07/21 09:51:18;;;;;;;5.08;1.72;;;;;;;;;;1752520;80;21082;-69
2022/07/21 09:53:52;;;;;;;1.70;1.40;;;;;;;;;;1698890;83;21127;-72
2022/07/21 09:56:19;;;;;;;3.67;1.70;;;;;;;;;;1735309;82;21038;-71
2022/07/21 09:58:49;;;;;;;5.58;1.57;;;;;;;;;;1741311;82;21070;-71
2022/07/21 10:01:15;;;;;;;5.42;2.00;;;;;;;;;;1739983;82;21070;-70
2022/07/21 10:03:44;;;;;;;3.10;1.80;;;;;;;;;;1755741;80;21076;-69
2022/07/21 10:06:10;;;;;;;2.30;1.60;;;;;;;;;;1757783;80;21019;-69
2022/07/21 10:08:37;;;;;;;3.00;1.65;;;;;;;;;;1745827;82;21102;-69
2022/07/21 10:11:03;;;;;;;3.52;1.67;;;;;;;;;;1748385;80;21015;-68
2022/07/21 10:13:30;;;;;;;3.52;1.90;;;;;;;;;;1745891;82;21039;-70
2022/07/21 10:15:57;;;;;;;2.45;1.80;;;;;;;;;;1745919;82;21075;-69
2022/07/21 10:18:25;;;;;;;3.85;1.75;;;;;;;;;;1746256;82;21043;-69
2022/07/21 10:20:54;;;;;;;4.55;2.17;;;;;;;;;;1751773;81;21060;-69
2022/07/21 10:23:24;;;;;;;7.67;2.42;;;;;;;;;;1760814;81;21535;-69
2022/07/21 10:25:50;;;;;;;3.30;2.42;;;;;;;;;;1760992;81;21079;-69
2022/07/21 10:28:18;;;;;;;4.12;2.20;;;;;;;;;;1754177;81;22532;-68
2022/07/21 10:30:45;;;;;;;2.85;2.30;;;;;;;;;;1745051;82;21027;-69
2022/07/21 10:33:13;;;;;;;3.42;2.10;;;;;;;;;;1745824;82;21554;-69
2022/07/21 10:35:40;;;;;;;2.20;1.90;;;;;;;;;;1773468;81;21087;-69
2022/07/21 10:38:06;;;;;;;7.37;2.05;;;;;;;;;;1787311;80;21061;-70
2022/07/21 10:40:34;;;;;;;3.65;1.80;;;;;;;;;;1762232;80;21055;-67
2022/07/21 10:43:03;;;;;;;8.98;2.37;;;;;;;;;;1775422;81;21110;-70
2022/07/21 10:45:31;;;;;;;4.78;2.30;;;;;;;;;;1776012;80;21585;-68
2022/07/21 10:47:59;;;;;;;8.25;2.50;;;;;;;;;;1789996;80;21021;-71
2022/07/21 10:50:29;;;;;;;5.58;2.15;;;;;;;;;;1789194;80;21040;-72
2022/07/21 10:52:59;;;;;;;2.85;1.90;;;;;;;;;;1776299;81;21065;-72
2022/07/21 10:55:26;;;;;;;4.60;2.22;;;;;;;;;;1776478;81;21459;-71
2022/07/21 10:58:10;;;;;;;4.53;2.40;;;;;;;;;;1786912;80;21488;-69
2022/07/21 11:00:36;;;;;;;5.10;2.27;;;;;;;;;;1783572;80;21057;-69
2022/07/21 11:03:04;;;;;;;3.55;1.90;;;;;;;;;;1775645;80;21112;-71
2022/07/21 11:05:31;;;;;;;3.65;1.70;;;;;;;;;;1776962;81;21099;-71
2022/07/21 11:08:14;;;;;;;4.78;2.20;;;;;;;;;;1777337;80;21546;-69
2022/07/21 11:10:43;;;;;;;5.35;2.35;;;;;;;;;;1785499;80;21064;-69
2022/07/21 11:13:10;;;;;;;7.37;2.55;;;;;;;;;;1745895;82;21047;-69
2022/07/21 11:15:43;;;;;;;2.80;2.22;;;;;;;;;;1759079;80;21110;-69
2022/07/21 11:18:09;;;;;;;4.30;2.55;;;;;;;;;;1777023;80;21071;-70
2022/07/21 11:20:36;;;;;;;3.55;2.37;;;;;;;;;;1777112;81;21079;-71
2022/07/21 11:23:05;;;;;;;3.27;2.70;;;;;;;;;;1774963;81;21550;-70
2022/07/21 11:25:33;;;;;;;4.00;2.62;;;;;;;;;;1774366;80;21087;-70
2022/07/21 11:27:59;;;;;;;4.28;2.27;;;;;;;;;;1776936;81;21117;-71
2022/07/21 11:30:26;;;;;;;3.77;2.15;;;;;;;;;;1776972;81;21079;-69
2022/07/21 11:32:52;;;;;;;3.10;2.15;;;;;;;;;;1776574;80;21075;-70
2022/07/21 11:35:18;;;;;;;4.78;2.62;;;;;;;;;;1775208;81;21091;-69
2022/07/21 11:37:45;;;;;;;4.37;2.70;;;;;;;;;;1785766;80;21076;-70
2022/07/21 11:40:16;;;;;;;4.85;2.70;;;;;;;;;;1790669;80;21040;-69
2022/07/21 11:42:43;;;;;;;4.20;2.65;;;;;;;;;;1780427;80;21122;-69
2022/07/21 11:45:10;;;;;;;5.53;3.00;;;;;;;;;;1791144;80;20992;-71
2022/07/21 11:47:36;;;;;;;4.97;3.10;;;;;;;;;;1791002;80;21067;-70
2022/07/21 11:50:04;;;;;;;6.70;3.15;;;;;;;;;;1790550;80;21048;-70
2022/07/21 11:52:34;;;;;;;4.60;3.20;;;;;;;;;;1783498;80;21118;-70
2022/07/21 11:55:02;;;;;;;6.00;3.25;;;;;;;;;;1777205;80;21095;-71
2022/07/21 11:57:29;;;;;;;4.00;3.10;;;;;;;;;;1777238;81;21075;-71
2022/07/21 11:59:56;;;;;;;6.72;3.33;;;;;;;;;;1782733;80;21064;-68
2022/07/21 12:02:23;;;;;;;6.12;3.58;;;;;;;;;;1776538;80;21071;-67
2022/07/21 12:04:50;;;;;;;5.80;3.02;;;;;;;;;;1775460;81;21063;-67
2022/07/21 12:07:21;;;;;;;6.45;2.75;;;;;;;;;;1775856;81;21106;-72
2022/07/21 12:09:49;;;;;;;7.12;3.10;;;;;;;;;;1776501;81;21014;-70
2022/07/21 12:12:15;;;;;;;5.25;3.15;;;;;;;;;;1775481;81;21616;-70
2022/07/21 12:14:43;;;;;;;7.47;3.27;;;;;;;;;;1751405;80;21016;-69
2022/07/21 12:17:10;;;;;;;7.12;3.25;;;;;;;;;;1776778;81;21044;-70
2022/07/21 12:19:37;;;;;;;5.80;3.10;;;;;;;;;;1776574;80;21068;-71
2022/07/21 12:22:03;;;;;;;6.15;3.17;;;;;;;;;;1776951;81;21067;-71
2022/07/21 12:24:48;;;;;;;4.40;3.00;;;;;;;;;;1777081;81;21043;-69
2022/07/21 12:27:15;;;;;;;5.12;3.12;;;;;;;;;;1776661;81;21085;-68
2022/07/21 12:29:41;;;;;;;5.20;3.20;;;;;;;;;;1748855;81;21038;-71
2022/07/21 12:32:07;;;;;;;4.28;3.00;;;;;;;;;;1776711;81;21090;-71
2022/07/21 12:34:51;;;;;;;5.55;3.20;;;;;;;;;;1778348;80;21048;-72
2022/07/21 12:37:17;;;;;;;5.05;3.08;;;;;;;;;;1776593;81;21059;-72
2022/07/21 12:39:58;;;;;;;7.15;3.22;;;;;;;;;;1775845;80;21602;-71
2022/07/21 12:42:30;;;;;;;5.60;3.30;;;;;;;;;;1782036;80;21512;-70
2022/07/21 12:44:57;;;;;;;5.20;3.12;;;;;;;;;;1777593;80;21000;-72
2022/07/21 12:47:23;;;;;;;4.67;3.47;;;;;;;;;;1784522;80;21090;-71
2022/07/21 12:49:54;;;;;;;4.45;3.30;;;;;;;;;;1777863;80;21016;-72
2022/07/21 12:52:21;;;;;;;6.35;3.40;;;;;;;;;;1785084;80;21547;-71
2022/07/21 12:54:46;;;;;;;5.95;4.00;;;;;;;;;;1781177;79;21020;-68
2022/07/21 12:57:13;;;;;;;5.45;3.15;;;;;;;;;;1783891;79;21048;-68
2022/07/21 12:59:39;;;;;;;6.95;3.40;;;;;;;;;;1776827;81;21035;-67
2022/07/21 13:02:05;;;;;;;6.97;3.27;;;;;;;;;;1779057;80;21062;-67
2022/07/21 13:04:33;;;;;;;5.20;3.30;;;;;;;;;;1776438;81;21060;-67
2022/07/21 13:06:59;;;;;;;4.78;2.98;;;;;;;;;;1781279;79;21008;-70
2022/07/21 13:09:27;;;;;;;6.25;3.52;;;;;;;;;;1746593;82;21055;-69
2022/07/21 13:11:53;;;;;;;5.08;3.62;;;;;;;;;;1773366;80;21023;-70
2022/07/21 13:14:20;;;;;;;6.70;3.55;;;;;;;;;;1775814;81;21035;-70
2022/07/21 13:16:47;;;;;;;6.58;3.70;;;;;;;;;;1776751;80;21052;-69
2022/07/21 13:19:14;;;;;;;6.20;3.15;;;;;;;;;;1776937;81;21126;-70
2022/07/21 13:21:40;;;;;;;5.40;3.05;;;;;;;;;;1776778;81;21023;-69
2022/07/21 13:24:07;;;;;;;5.70;3.37;;;;;;;;;;1791111;80;21129;-69
2022/07/21 13:26:33;;;;;;;3.80;3.10;;;;;;;;;;1780373;79;21605;-70
2022/07/21 13:29:02;;;;;;;5.17;3.40;;;;;;;;;;1785375;80;21094;-69
2022/07/21 13:31:28;;;;;;;6.33;3.15;;;;;;;;;;1788703;80;20993;-69
2022/07/21 13:33:54;;;;;;;3.77;3.00;;;;;;;;;;1779830;80;21059;-69
2022/07/21 13:36:20;;;;;;;5.35;2.80;;;;;;;;;;1766951;81;21540;-69
2022/07/21 13:38:47;;;;;;;6.40;3.37;;;;;;;;;;1764743;81;22145;-70
2022/07/21 13:41:16;;;;;;;5.53;3.25;;;;;;;;;;1740067;81;21536;-69
2022/07/21 13:43:42;;;;;;;4.37;3.35;;;;;;;;;;1763064;81;21040;-69
2022/07/21 13:46:08;;;;;;;5.97;3.67;;;;;;;;;;1764508;81;21013;-69
2022/07/21 13:48:34;;;;;;;9.15;3.52;;;;;;;;;;1765061;81;21016;-69
2022/07/21 13:51:02;;;;;;;10.23;3.50;;;;;;;;;;1764528;81;21103;-69
2022/07/21 13:53:28;;;;;;;6.47;3.20;;;;;;;;;;1754183;81;21037;-69
2022/07/21 13:55:56;;;;;;;7.67;3.67;;;;;;;;;;1759674;81;21124;-71
2022/07/21 13:58:22;;;;;;;5.17;3.50;;;;;;;;;;1764402;81;21078;-69
2022/07/21 14:00:48;;;;;;;7.00;3.65;;;;;;;;;;1764120;81;21059;-70
2022/07/21 14:03:16;;;;;;;5.70;3.42;;;;;;;;;;1764020;81;22142;-71
2022/07/21 14:05:43;;;;;;;5.92;3.77;;;;;;;;;;1764563;81;21008;-72
2022/07/21 14:08:09;;;;;;;7.92;3.50;;;;;;;;;;1763893;81;20988;-72
2022/07/21 14:10:36;;;;;;;5.37;3.40;;;;;;;;;;1763012;81;21067;-71
2022/07/21 14:13:02;;;;;;;7.90;3.75;;;;;;;;;;1764248;81;20993;-70
2022/07/21 14:15:28;;;;;;;5.55;3.55;;;;;;;;;;1763112;81;21040;-69
2022/07/21 14:17:56;;;;;;;8.33;3.75;;;;;;;;;;1763468;81;21627;-70
2022/07/21 14:20:22;;;;;;;6.55;3.72;;;;;;;;;;1763877;81;21027;-69
2022/07/21 14:22:48;;;;;;;5.75;3.35;;;;;;;;;;1763869;81;21048;-69
2022/07/21 14:25:20;;;;;;;6.87;3.67;;;;;;;;;;1764920;81;21056;-70
2022/07/21 14:27:47;;;;;;;8.60;3.05;;;;;;;;;;1764511;81;21051;-70
2022/07/21 14:30:14;;;;;;;5.85;3.77;;;;;;;;;;1764780;81;21016;-69
2022/07/21 14:32:40;;;;;;;8.93;3.90;;;;;;;;;;1764197;81;21077;-70
2022/07/21 14:35:06;;;;;;;7.42;3.60;;;;;;;;;;1763305;81;21056;-70
2022/07/21 14:37:32;;;;;;;6.08;3.40;;;;;;;;;;1755185;81;21040;-70
2022/07/21 14:39:58;;;;;;;6.85;4.00;;;;;;;;;;1754958;82;21044;-70
2022/07/21 14:42:24;;;;;;;5.97;3.70;;;;;;;;;;1755680;81;21011;-69
2022/07/21 14:44:50;;;;;;;7.45;3.80;;;;;;;;;;1764422;81;21032;-70
2022/07/21 14:47:17;;;;;;;7.12;3.67;;;;;;;;;;1764714;81;21227;-69
2022/07/21 14:49:43;;;;;;;6.80;3.70;;;;;;;;;;1764957;81;21055;-69
2022/07/21 14:52:10;;;;;;;6.83;3.70;;;;;;;;;;1764348;81;21111;-69
2022/07/21 14:54:36;;;;;;;8.98;3.98;;;;;;;;;;1770041;81;21020;-69
2022/07/21 14:57:02;;;;;;;4.97;3.33;;;;;;;;;;1773082;80;21088;-69
2022/07/21 14:59:28;;;;;;;6.25;3.15;;;;;;;;;;1773171;79;21047;-68
2022/07/21 15:01:54;;;;;;;9.78;3.92;;;;;;;;;;1773205;80;21455;-69
2022/07/21 15:04:21;;;;;;;5.37;3.83;;;;;;;;;;1764085;81;21488;-71
2022/07/21 15:06:48;;;;;;;10.50;3.65;;;;;;;;;;1764422;81;21083;-71
2022/07/21 15:09:15;;;;;;;8.08;3.70;;;;;;;;;;1764726;81;21065;-70
2022/07/21 15:11:41;;;;;;;8.38;3.70;;;;;;;;;;1763620;81;22081;-70
2022/07/21 15:14:08;;;;;;;6.00;3.47;;;;;;;;;;1753920;81;21090;-69
2022/07/21 15:16:34;;;;;;;9.00;3.90;;;;;;;;;;1758533;81;21013;-69